Carpenter, WY

2:03 AM MDT on July 29, 2016 (GMT -0600)
Tietmeyer Farms | | Change Station

Elev 5285 ft 40.97 °N, 104.28 °W | Updated 2 minutes ago

Scattered Clouds
Scattered Clouds
58.7 °F
Feels Like 58.7 °F
N
1.0
Wind Variable Wind from WSW
Gusts 3.0 mph

Today
High -- | Low -- °F
--% Chance of Precip.
Yesterday
High -- | Low -- °F
Precip. -- in
Pressure 30.26 in
Visibility 10.0 miles
Clouds Scattered Clouds 9000 ft
Scattered Clouds 12000 ft
Dew Point 55 °F
Humidity 89%
Rainfall 0.00 in
Snow Depth Not available.
5:50 AM 8:16 PM
Waning Crescent, 24% visible
METAR K82V 290755Z AUTO 32003KT 10SM SCT090 SCT120 15/13 A3026 RMK AO2
Pressure 30.26 in
Visibility 10.0 miles
Clouds Scattered Clouds 9000 ft
Scattered Clouds 12000 ft
Dew Point 55 °F
Humidity 89%
Rainfall 0.00 in
Snow Depth Not available.
5:50 AM 8:16 PM
Waning Crescent, 24% visible
METAR K82V 290755Z AUTO 32003KT 10SM SCT090 SCT120 15/13 A3026 RMK AO2

10-Day Weather Forecast

Almanac

Astronomy

Jul. 29, 2016 Rise Set
Actual Time
Civil Twilight
Nautical Twilight
Astronomical Twilight
Moon
Length of Visible Light
Length of Day
Tomorrow will be .
, % of the Moon is Illuminated

Today's Extremes

State Highs State Lows

Community

WunderPhotos

Upload Photos

1,928,300 photos uploaded!

WunderBlog® & News

Nearby

Air Quality

  Air Quality AQ Index Pollutant
Not available.

Snow Depth

Station Depth Elevation

Earthquake Activity

City Distance Mag. Time & Date
Minimum magnitude displayed is 2.5.

Coastal Water Temperatures

Place Temperature

Stations

Nearby Weather Stations

Station Location Temp. Windchill Dew Point Humidity Wind Precip. Elev Updated Type
                   

Watches & Warnings

There are currently no watches in effect.